Time;durP1;ratioP1;P1;durP2;ratioP2;P2;SDS_P1;SDS_P2;PMS_P1;PMS_P2;Temp;Humidity;BMP_temperature;BMP_pressure;BME280_temperature;BME280_humidity;BME280_pressure;Samples;Min_cycle;Max_cycle;Signal;HPM_P1;HPM_P2
2024/03/21 00:02:56;;;;;;;;;;;8.30;99.90;;;;;;21159579;28;19934;-78
2024/03/21 00:12:57;;;;;;;;;;;8.00;99.90;;;;;;21169942;28;19920;-78
2024/03/21 00:22:57;;;;;;;;;;;7.80;99.90;;;;;;21168453;28;20306;-77
2024/03/21 00:32:58;;;;;;;;;;;7.80;99.90;;;;;;21164271;28;19915;-77
2024/03/21 00:42:59;;;;;;;;;;;8.50;99.90;;;;;;21169792;28;19916;-78
2024/03/21 00:53:00;;;;;;;;;;;8.90;99.90;;;;;;21158345;28;20305;-78
2024/03/21 01:03:02;;;;;;;;;;;8.80;99.90;;;;;;21147882;28;19912;-78
2024/03/21 01:13:03;;;;;;;;;;;8.60;99.90;;;;;;21106527;28;20371;-78
2024/03/21 01:23:03;;;;;;;;;;;8.60;99.90;;;;;;21154882;28;19919;-78
2024/03/21 01:33:04;;;;;;;;;;;8.50;99.90;;;;;;21163609;28;19922;-78
2024/03/21 01:43:19;;;;;;;;;;;8.60;99.90;;;;;;21163902;28;19912;-78
2024/03/21 01:53:19;;;;;;;;;;;8.80;99.90;;;;;;21161633;28;19915;-77
2024/03/21 02:03:20;;;;;;;;;;;8.60;99.90;;;;;;21164363;28;20185;-78
2024/03/21 02:13:20;;;;;;;;;;;8.60;99.90;;;;;;21162685;28;19927;-78
2024/03/21 02:23:21;;;;;;;;;;;8.40;99.90;;;;;;21167547;28;19912;-77
2024/03/21 02:33:22;;;;;;;;;;;8.40;99.90;;;;;;21180823;28;20010;-76
2024/03/21 02:43:23;;;;;;;;;;;8.00;99.90;;;;;;21181700;28;19912;-78
2024/03/21 02:53:23;;;;;;;;;;;8.10;99.90;;;;;;21176678;28;20006;-76
2024/03/21 03:03:24;;;;;;;;;;;8.20;99.90;;;;;;21177394;28;20370;-77
2024/03/21 03:13:25;;;;;;;;;;;8.20;99.90;;;;;;21177283;28;19962;-78
2024/03/21 03:23:25;;;;;;;;;;;8.20;99.90;;;;;;21175402;28;19951;-78
2024/03/21 03:43:45;;;;;;;;;;;8.20;99.90;;;;;;21165780;28;19912;-78
2024/03/21 03:53:46;;;;;;;;;;;8.30;99.90;;;;;;21174901;28;20006;-78
2024/03/21 04:03:46;;;;;;;;;;;8.30;99.90;;;;;;21174851;28;19912;-78
2024/03/21 04:13:47;;;;;;;;;;;8.30;99.90;;;;;;21174737;28;19923;-78
2024/03/21 04:23:48;;;;;;;;;;;8.40;99.90;;;;;;21177637;28;19912;-79
2024/03/21 04:33:48;;;;;;;;;;;8.40;99.90;;;;;;21177963;28;19923;-79
2024/03/21 04:43:49;;;;;;;;;;;8.30;99.90;;;;;;21182179;28;19918;-78
2024/03/21 04:53:49;;;;;;;;;;;8.30;99.90;;;;;;21179953;28;19922;-79
2024/03/21 05:03:50;;;;;;;;;;;8.40;99.90;;;;;;21174719;28;19927;-78
2024/03/21 05:13:52;;;;;;;;;;;8.30;99.90;;;;;;21161510;28;19935;-78
2024/03/21 05:23:52;;;;;;;;;;;8.50;99.90;;;;;;21163271;28;19915;-78
2024/03/21 05:33:54;;;;;;;;;;;8.80;99.90;;;;;;21171926;28;19923;-78
2024/03/21 05:43:54;;;;;;;;;;;9.10;99.90;;;;;;21212750;28;19912;-77
2024/03/21 05:53:55;;;;;;;;;;;9.20;99.90;;;;;;21221452;28;20390;-78
2024/03/21 06:03:56;;;;;;;;;;;9.20;99.90;;;;;;21167651;28;19912;-79
2024/03/21 06:13:56;;;;;;;;;;;9.40;99.90;;;;;;21175398;28;19923;-78
2024/03/21 06:23:57;;;;;;;;;;;9.00;99.90;;;;;;21169230;28;20292;-77
2024/03/21 06:33:57;;;;;;;;;;;8.90;99.90;;;;;;21164583;28;19977;-77
2024/03/21 06:43:58;;;;;;;;;;;9.00;99.90;;;;;;21160601;28;19912;-76
2024/03/21 06:53:59;;;;;;;;;;;9.30;99.90;;;;;;21159944;28;20375;-76
2024/03/21 07:04:00;;;;;;;;;;;9.60;99.90;;;;;;21155362;28;20057;-77
2024/03/21 07:14:02;;;;;;;;;;;9.70;99.90;;;;;;21169106;28;19958;-76
2024/03/21 07:24:03;;;;;;;;;;;9.80;99.90;;;;;;21168630;28;19919;-76
2024/03/21 07:34:04;;;;;;;;;;;9.90;99.90;;;;;;21153982;28;19919;-76
2024/03/21 07:44:04;;;;;;;;;;;10.00;99.90;;;;;;21163374;28;19911;-76
2024/03/21 07:54:05;;;;;;;;;;;10.00;99.90;;;;;;21153454;28;19922;-75
2024/03/21 08:04:07;;;;;;;;;;;10.00;99.90;;;;;;21166439;28;19912;-76
2024/03/21 08:14:08;;;;;;;;;;;10.10;99.90;;;;;;21165337;28;20005;-76
2024/03/21 08:24:10;;;;;;;;;;;10.90;99.90;;;;;;21164435;28;19911;-76
2024/03/21 08:34:11;;;;;;;;;;;12.10;99.90;;;;;;21164139;28;19959;-75
2024/03/21 08:44:11;;;;;;;;;;;11.80;99.90;;;;;;21163177;28;19911;-75
2024/03/21 08:54:12;;;;;;;;;;;13.30;99.90;;;;;;21161996;28;19915;-76
2024/03/21 09:04:12;;;;;;;;;;;13.80;99.90;;;;;;21162405;28;19912;-75
2024/03/21 09:14:13;;;;;;;;;;;13.00;99.90;;;;;;21160298;28;20306;-76
2024/03/21 09:24:14;;;;;;;;;;;13.40;99.90;;;;;;21159608;28;19915;-75
2024/03/21 09:34:14;;;;;;;;;;;13.30;99.90;;;;;;21158603;28;19968;-75
2024/03/21 09:44:15;;;;;;;;;;;14.10;99.90;;;;;;21148817;28;19969;-75
2024/03/21 09:54:16;;;;;;;;;;;14.80;99.90;;;;;;21156309;28;20420;-74
2024/03/21 10:04:16;;;;;;;;;;;15.80;99.90;;;;;;21158094;28;19982;-76
2024/03/21 10:14:17;;;;;;;;;;;15.90;99.90;;;;;;21157557;28;19970;-76
2024/03/21 10:24:18;;;;;;;;;;;17.00;99.90;;;;;;21154240;28;19912;-76
2024/03/21 10:34:20;;;;;;;;;;;16.80;99.90;;;;;;21152352;28;20074;-76
2024/03/21 10:44:21;;;;;;;;;;;17.60;99.90;;;;;;21144938;28;19918;-76
2024/03/21 10:54:22;;;;;;;;;;;17.80;99.90;;;;;;21172417;28;19990;-76
2024/03/21 11:04:23;;;;;;;;;;;17.20;99.90;;;;;;21177874;28;19912;-76
2024/03/21 11:14:24;;;;;;;;;;;17.90;99.90;;;;;;21171313;28;20018;-75
2024/03/21 11:24:25;;;;;;;;;;;17.20;99.90;;;;;;21169828;28;19920;-75
2024/03/21 11:34:26;;;;;;;;;;;18.50;99.90;;;;;;21168737;28;19916;-75
2024/03/21 11:44:27;;;;;;;;;;;17.00;99.90;;;;;;21168509;28;19912;-76
2024/03/21 11:54:28;;;;;;;;;;;17.30;99.90;;;;;;21170244;28;20410;-77
2024/03/21 12:04:29;;;;;;;;;;;17.20;99.90;;;;;;21166851;28;19912;-77
2024/03/21 12:14:30;;;;;;;;;;;18.00;99.90;;;;;;21165457;28;19922;-76
2024/03/21 12:24:31;;;;;;;;;;;17.40;99.90;;;;;;21164610;28;19947;-76
2024/03/21 12:34:32;;;;;;;;;;;17.30;99.90;;;;;;21164117;28;20417;-76
2024/03/21 12:44:32;;;;;;;;;;;18.10;99.90;;;;;;21163816;28;19919;-76
2024/03/21 12:54:33;;;;;;;;;;;18.80;99.90;;;;;;21162776;28;19923;-76
2024/03/21 13:04:33;;;;;;;;;;;18.80;99.90;;;;;;21160382;28;20026;-75
2024/03/21 13:14:34;;;;;;;;;;;18.50;99.90;;;;;;21142060;27;19973;-75
2024/03/21 13:24:35;;;;;;;;;;;18.80;99.90;;;;;;21159874;28;20340;-75
2024/03/21 13:34:36;;;;;;;;;;;19.40;99.90;;;;;;21141916;28;19955;-75
2024/03/21 13:44:37;;;;;;;;;;;20.60;99.90;;;;;;21158872;28;20375;-74
2024/03/21 13:54:38;;;;;;;;;;;18.90;99.90;;;;;;21156833;28;19922;-75
2024/03/21 14:04:38;;;;;;;;;;;19.20;99.90;;;;;;21156025;28;19912;-75
2024/03/21 14:14:39;;;;;;;;;;;19.30;99.90;;;;;;21158268;28;20367;-76
2024/03/21 14:24:41;;;;;;;;;;;19.10;99.90;;;;;;21175372;28;19912;-74
2024/03/21 14:34:43;;;;;;;;;;;20.30;99.90;;;;;;21174250;28;19959;-75
2024/03/21 14:44:43;;;;;;;;;;;19.50;99.90;;;;;;21173228;28;19992;-76
2024/03/21 14:54:44;;;;;;;;;;;19.30;99.90;;;;;;21173933;28;20395;-76
2024/03/21 15:04:45;;;;;;;;;;;19.00;99.90;;;;;;21152743;28;20306;-76
2024/03/21 15:14:46;;;;;;;;;;;19.80;99.90;;;;;;21170236;28;20398;-76
2024/03/21 15:24:46;;;;;;;;;;;19.90;99.90;;;;;;21169884;28;19947;-76
2024/03/21 15:34:47;;;;;;;;;;;19.30;99.90;;;;;;21169240;28;20375;-75
2024/03/21 15:44:48;;;;;;;;;;;19.20;99.90;;;;;;21152894;28;20282;-76
2024/03/21 15:54:49;;;;;;;;;;;19.70;99.90;;;;;;21136940;28;20006;-75
2024/03/21 16:04:49;;;;;;;;;;;19.40;99.90;;;;;;21164838;28;19912;-76
2024/03/21 16:14:50;;;;;;;;;;;18.50;99.90;;;;;;21165611;28;19969;-76
2024/03/21 16:24:51;;;;;;;;;;;18.40;99.90;;;;;;21157813;28;19947;-75
2024/03/21 16:34:52;;;;;;;;;;;18.10;99.90;;;;;;21153586;28;19939;-75
2024/03/21 16:44:53;;;;;;;;;;;18.00;99.90;;;;;;21157729;28;20003;-75
2024/03/21 16:54:54;;;;;;;;;;;18.10;99.90;;;;;;21151291;28;19963;-75
2024/03/21 17:04:54;;;;;;;;;;;17.80;99.90;;;;;;21161439;28;19938;-75
2024/03/21 17:14:55;;;;;;;;;;;17.40;99.90;;;;;;21156611;28;20438;-75
2024/03/21 17:24:56;;;;;;;;;;;17.10;99.90;;;;;;21155236;28;19974;-76
2024/03/21 17:34:56;;;;;;;;;;;16.30;99.90;;;;;;21159693;28;19923;-76
2024/03/21 17:44:57;;;;;;;;;;;15.80;99.90;;;;;;21158964;28;19951;-75
2024/03/21 17:54:58;;;;;;;;;;;15.40;99.90;;;;;;21156940;28;19923;-77
2024/03/21 18:04:58;;;;;;;;;;;14.90;99.90;;;;;;21117955;28;19946;-76
2024/03/21 18:14:59;;;;;;;;;;;14.70;99.90;;;;;;21147615;28;19981;-77
2024/03/21 18:25:03;;;;;;;;;;;14.50;99.90;;;;;;21103001;22;21849;-77
2024/03/21 18:35:08;;;;;;;;;;;14.60;99.90;;;;;;20994149;28;19926;-77
2024/03/21 18:45:10;;;;;;;;;;;14.00;99.90;;;;;;21013541;28;20014;-77
2024/03/21 18:55:10;;;;;;;;;;;13.40;99.90;;;;;;21017145;28;19924;-77
2024/03/21 19:05:11;;;;;;;;;;;12.80;99.90;;;;;;21038288;28;19912;-77
2024/03/21 19:15:12;;;;;;;;;;;12.30;99.90;;;;;;21049431;28;19966;-79
2024/03/21 19:25:12;;;;;;;;;;;12.00;99.90;;;;;;21110830;27;19955;-79
2024/03/21 19:35:13;;;;;;;;;;;12.00;99.90;;;;;;21160770;27;19926;-78
2024/03/21 19:45:14;;;;;;;;;;;11.60;99.90;;;;;;21163765;27;19935;-77
2024/03/21 19:55:15;;;;;;;;;;;11.30;99.90;;;;;;21147172;28;19916;-77
2024/03/21 20:05:15;;;;;;;;;;;10.90;99.90;;;;;;21172446;28;20340;-77
2024/03/21 20:15:16;;;;;;;;;;;10.60;99.90;;;;;;21152306;28;19922;-78
2024/03/21 20:25:17;;;;;;;;;;;10.90;99.90;;;;;;21171354;28;20365;-78
2024/03/21 20:35:18;;;;;;;;;;;10.70;99.90;;;;;;21167191;28;20011;-78
2024/03/21 20:45:18;;;;;;;;;;;10.60;99.90;;;;;;21163996;28;19926;-78
2024/03/21 20:55:19;;;;;;;;;;;10.50;99.90;;;;;;21155519;28;19935;-77
2024/03/21 21:05:20;;;;;;;;;;;10.30;99.90;;;;;;21140880;28;19932;-77
2024/03/21 21:15:20;;;;;;;;;;;10.40;99.90;;;;;;21143941;28;19915;-78
2024/03/21 21:25:21;;;;;;;;;;;10.00;99.90;;;;;;21136640;28;19916;-78
2024/03/21 21:35:22;;;;;;;;;;;10.00;99.90;;;;;;21149506;28;20011;-79
2024/03/21 21:45:22;;;;;;;;;;;10.10;99.90;;;;;;21147364;28;19994;-78
2024/03/21 21:55:27;;;;;;;;;;;9.80;99.90;;;;;;21140678;28;20297;-78
2024/03/21 22:05:28;;;;;;;;;;;9.60;99.90;;;;;;21173321;28;19968;-78
2024/03/21 22:15:29;;;;;;;;;;;9.80;99.90;;;;;;21169192;28;20278;-78
2024/03/21 22:25:29;;;;;;;;;;;10.00;99.90;;;;;;21169029;28;19916;-79
2024/03/21 22:35:32;;;;;;;;;;;10.20;99.90;;;;;;21171374;28;19961;-78
2024/03/21 22:45:33;;;;;;;;;;;10.10;99.90;;;;;;21178748;28;19965;-78
2024/03/21 22:55:34;;;;;;;;;;;10.10;99.90;;;;;;21181778;28;19916;-78
2024/03/21 23:05:37;;;;;;;;;;;9.70;99.90;;;;;;21181072;28;19943;-79
2024/03/21 23:15:38;;;;;;;;;;;9.60;99.90;;;;;;21153826;28;19920;-78
2024/03/21 23:25:40;;;;;;;;;;;9.50;99.90;;;;;;21153738;28;19916;-78
2024/03/21 23:35:41;;;;;;;;;;;9.50;99.90;;;;;;21150375;28;19916;-77
2024/03/21 23:45:42;;;;;;;;;;;9.60;99.90;;;;;;21150269;28;19950;-77
2024/03/21 23:55:43;;;;;;;;;;;9.60;99.90;;;;;;21134884;28;19939;-78
